Time;durP1;ratioP1;P1;durP2;ratioP2;P2;SDS_P1;SDS_P2;PMS_P1;PMS_P2;Temp;Humidity;BMP_temperature;BMP_pressure;BME280_temperature;BME280_humidity;BME280_pressure;Samples;Min_cycle;Max_cycle;Signal;HPM_P1;HPM_P2
2021/08/25 00:00:29;;;;;;;1.33;0.60;;;22.40;97.50;;;;;;6185252;23;20325;-86
2021/08/25 00:02:55;;;;;;;1.17;0.70;;;22.40;97.50;;;;;;6185945;23;20001;-80
2021/08/25 00:05:21;;;;;;;0.55;0.55;;;22.40;97.70;;;;;;6185085;23;20013;-81
2021/08/25 00:07:47;;;;;;;1.77;0.75;;;22.40;97.70;;;;;;6185224;23;20437;-80
2021/08/25 00:10:12;;;;;;;4.43;0.70;;;22.30;97.80;;;;;;6185504;23;20005;-88
2021/08/25 00:12:39;;;;;;;0.50;0.50;;;22.30;97.80;;;;;;6185331;23;20009;-81
2021/08/25 00:15:07;;;;;;;4.10;0.70;;;22.30;97.90;;;;;;6160337;23;20498;-84
2021/08/25 00:17:32;;;;;;;1.73;0.65;;;22.20;98.00;;;;;;6186693;23;20007;-87
2021/08/25 00:19:58;;;;;;;0.70;0.50;;;22.20;98.20;;;;;;6184468;23;20036;-87
2021/08/25 00:22:24;;;;;;;3.03;0.57;;;22.10;98.30;;;;;;6185008;23;19997;-86
2021/08/25 00:24:50;;;;;;;0.50;0.50;;;22.20;98.40;;;;;;6185547;23;20059;-82
2021/08/25 00:27:16;;;;;;;2.47;0.60;;;22.10;98.40;;;;;;6185167;23;20068;-87
2021/08/25 00:29:41;;;;;;;0.85;0.68;;;22.10;98.40;;;;;;6185182;23;20008;-87
2021/08/25 00:32:07;;;;;;;8.80;0.70;;;22.10;98.40;;;;;;6185837;23;20028;-83
2021/08/25 00:34:33;;;;;;;0.52;0.50;;;22.00;98.60;;;;;;6185408;23;20009;-82
2021/08/25 00:36:58;;;;;;;1.35;0.68;;;22.00;98.70;;;;;;6185409;23;20001;-87
2021/08/25 00:39:24;;;;;;;4.03;0.60;;;22.00;98.90;;;;;;6185362;23;20078;-84
2021/08/25 00:41:50;;;;;;;2.75;0.60;;;21.90;98.90;;;;;;6185064;23;20004;-82
2021/08/25 00:44:16;;;;;;;0.57;0.57;;;21.90;99.00;;;;;;6185208;23;20001;-82
2021/08/25 00:46:43;;;;;;;0.70;0.60;;;21.80;99.10;;;;;;6185306;23;20028;-86
2021/08/25 00:49:12;;;;;;;1.38;0.57;;;21.80;99.10;;;;;;6185313;23;20005;-86
2021/08/25 00:51:38;;;;;;;0.77;0.52;;;21.80;99.20;;;;;;6185255;23;20001;-86
2021/08/25 00:54:03;;;;;;;1.45;0.95;;;21.70;99.10;;;;;;6185113;23;20012;-82
2021/08/25 00:59:06;;;;;;;0.40;0.40;;;21.70;99.20;;;;;;5323556;23;20105;-84
2021/08/25 01:01:42;;;;;;;1.02;0.60;;;21.70;99.20;;;;;;6154928;23;20013;-82
2021/08/25 01:04:23;;;;;;;3.15;0.50;;;21.60;99.30;;;;;;6155743;23;20432;-81
2021/08/25 01:06:49;;;;;;;1.65;0.63;;;21.60;99.40;;;;;;6156176;23;20002;-82
2021/08/25 01:09:15;;;;;;;0.55;0.52;;;21.60;99.20;;;;;;6156270;23;20012;-84
2021/08/25 01:11:47;;;;;;;4.45;1.00;;;21.50;99.30;;;;;;6156362;23;20027;-83
2021/08/25 01:14:13;;;;;;;3.67;0.63;;;21.50;99.40;;;;;;6156396;23;20525;-83
2021/08/25 01:16:42;;;;;;;4.82;0.80;;;21.40;99.50;;;;;;6129715;23;20012;-86
2021/08/25 01:19:16;;;;;;;1.17;0.90;;;21.40;99.40;;;;;;6156236;23;20152;-82
2021/08/25 01:21:45;;;;;;;2.15;0.60;;;21.30;99.50;;;;;;6156255;23;20005;-84
2021/08/25 01:24:12;;;;;;;1.33;0.82;;;21.20;99.50;;;;;;6156246;23;20008;-83
2021/08/25 01:26:39;;;;;;;2.90;0.82;;;21.20;99.60;;;;;;6156172;23;20006;-80
2021/08/25 01:29:06;;;;;;;3.72;0.80;;;21.10;99.70;;;;;;6156378;23;20009;-79
2021/08/25 01:31:32;;;;;;;3.47;1.00;;;21.10;99.70;;;;;;6156202;23;20005;-83
2021/08/25 01:34:06;;;;;;;2.15;0.90;;;21.00;99.90;;;;;;6129921;23;20024;-86
2021/08/25 01:36:31;;;;;;;1.75;1.00;;;21.00;99.90;;;;;;6156418;23;20005;-84
2021/08/25 01:38:57;;;;;;;5.00;1.10;;;20.90;99.90;;;;;;6130061;23;20005;-84
2021/08/25 01:41:26;;;;;;;1.17;1.02;;;20.90;99.90;;;;;;6130145;23;20483;-85
2021/08/25 01:44:03;;;;;;;2.47;1.20;;;20.80;99.50;;;;;;6156109;23;20467;-86
2021/08/25 01:46:32;;;;;;;11.88;1.30;;;20.80;99.20;;;;;;6156637;23;20033;-82
2021/08/25 01:48:59;;;;;;;1.33;1.10;;;20.80;99.20;;;;;;6157063;23;20001;-81
2021/08/25 01:51:26;;;;;;;4.97;2.13;;;20.80;98.60;;;;;;6157064;23;20424;-80
2021/08/25 01:53:51;;;;;;;3.53;1.88;;;20.70;98.40;;;;;;6156907;23;20391;-80
2021/08/25 01:56:17;;;;;;;3.28;1.85;;;20.70;98.00;;;;;;6156870;23;19997;-84
2021/08/25 01:58:43;;;;;;;3.13;1.92;;;20.70;97.70;;;;;;6156681;23;20052;-86
2021/08/25 02:01:08;;;;;;;5.10;2.20;;;20.70;97.40;;;;;;6157454;23;20006;-81
2021/08/25 02:03:34;;;;;;;5.18;2.30;;;20.70;97.30;;;;;;6156602;23;20336;-82
2021/08/25 02:06:00;;;;;;;3.00;1.98;;;20.70;97.00;;;;;;6156977;23;20042;-82
2021/08/25 02:08:25;;;;;;;5.03;2.63;;;20.60;96.70;;;;;;6156957;23;20001;-81
2021/08/25 02:10:51;;;;;;;6.25;2.67;;;20.60;96.40;;;;;;6156701;23;20004;-82
2021/08/25 02:13:17;;;;;;;4.20;2.30;;;20.60;96.30;;;;;;6156529;23;20064;-88
2021/08/25 02:15:42;;;;;;;6.22;2.80;;;20.60;96.10;;;;;;6156459;23;20024;-81
2021/08/25 02:18:08;;;;;;;4.30;2.53;;;20.50;95.60;;;;;;6156651;23;20005;-82
2021/08/25 02:20:33;;;;;;;4.85;2.50;;;20.50;95.60;;;;;;6156701;23;20071;-86
2021/08/25 02:22:59;;;;;;;5.60;3.38;;;20.40;95.50;;;;;;6156725;23;20006;-83
2021/08/25 02:25:25;;;;;;;4.05;2.58;;;20.40;95.50;;;;;;6156435;23;20002;-81
2021/08/25 02:27:50;;;;;;;2.97;2.45;;;20.30;95.30;;;;;;6156654;23;20065;-81
2021/08/25 02:30:16;;;;;;;5.65;3.63;;;20.30;95.30;;;;;;6156528;23;20052;-81
2021/08/25 02:32:42;;;;;;;4.40;2.95;;;20.30;95.10;;;;;;6156670;23;20028;-83
2021/08/25 02:35:09;;;;;;;5.20;3.13;;;20.30;95.10;;;;;;6156458;23;20025;-85
2021/08/25 02:37:35;;;;;;;5.63;3.65;;;20.30;95.00;;;;;;6156422;23;20189;-80
2021/08/25 02:40:01;;;;;;;3.42;2.92;;;20.30;94.90;;;;;;6156666;23;20075;-85
2021/08/25 02:42:27;;;;;;;3.95;2.47;;;20.20;94.90;;;;;;6156466;23;20360;-82
2021/08/25 02:44:52;;;;;;;3.15;2.85;;;20.20;94.90;;;;;;6156392;23;20000;-87
2021/08/25 02:47:18;;;;;;;4.75;2.90;;;20.20;94.90;;;;;;6130425;23;20016;-81
2021/08/25 02:49:43;;;;;;;7.40;2.78;;;20.20;94.90;;;;;;6156707;23;20025;-80
2021/08/25 02:52:09;;;;;;;5.18;3.08;;;20.20;95.00;;;;;;6156291;23;20014;-80
2021/08/25 02:54:35;;;;;;;4.43;3.10;;;20.10;95.00;;;;;;6156438;23;20087;-86
2021/08/25 02:57:00;;;;;;;5.40;2.78;;;20.10;95.10;;;;;;6156232;23;20009;-86
2021/08/25 02:59:26;;;;;;;4.35;2.60;;;20.10;95.10;;;;;;6125205;23;20022;-81
2021/08/25 03:01:52;;;;;;;7.93;3.30;;;20.00;95.20;;;;;;6126680;23;20420;-86
2021/08/25 03:04:17;;;;;;;5.63;3.30;;;20.00;95.20;;;;;;6126781;23;20305;-86
2021/08/25 03:06:43;;;;;;;5.75;3.33;;;20.00;95.00;;;;;;6126821;23;19998;-84
2021/08/25 03:09:09;;;;;;;6.38;3.60;;;20.00;95.00;;;;;;6126795;23;20052;-87
2021/08/25 03:11:35;;;;;;;8.40;3.47;;;20.00;95.10;;;;;;6126492;23;20002;-81
2021/08/25 03:14:00;;;;;;;5.47;3.22;;;19.90;94.80;;;;;;6126587;23;20020;-83
2021/08/25 03:16:26;;;;;;;8.38;3.35;;;20.00;94.90;;;;;;6127080;23;19998;-81
2021/08/25 03:18:52;;;;;;;11.88;4.30;;;19.90;94.90;;;;;;6129616;23;20375;-85
2021/08/25 03:21:18;;;;;;;9.23;4.13;;;19.90;94.90;;;;;;6126558;23;20002;-82
2021/08/25 03:23:43;;;;;;;5.57;3.50;;;19.90;94.90;;;;;;6124927;23;20125;-87
2021/08/25 03:26:09;;;;;;;9.65;3.65;;;19.90;94.90;;;;;;6126486;23;19998;-83
2021/08/25 03:28:34;;;;;;;5.60;3.88;;;19.80;94.90;;;;;;6126440;23;20006;-82
2021/08/25 03:31:00;;;;;;;8.10;4.10;;;19.80;94.90;;;;;;6126695;23;20306;-81
2021/08/25 03:33:26;;;;;;;6.50;3.95;;;19.80;94.90;;;;;;6126606;23;20336;-85
2021/08/25 03:35:52;;;;;;;10.35;3.95;;;19.80;95.00;;;;;;6126422;23;20009;-82
2021/08/25 03:38:17;;;;;;;9.95;4.13;;;19.70;94.90;;;;;;6126434;23;20048;-86
2021/08/25 03:40:43;;;;;;;6.22;3.63;;;19.80;94.90;;;;;;6126462;23;20040;-81
2021/08/25 03:43:09;;;;;;;10.57;4.75;;;19.80;94.80;;;;;;6126430;23;20506;-86
2021/08/25 03:45:34;;;;;;;6.03;3.88;;;19.70;94.70;;;;;;6126212;23;20002;-85
2021/08/25 03:48:00;;;;;;;6.45;4.47;;;19.70;94.70;;;;;;6126538;23;20006;-83
2021/08/25 03:50:26;;;;;;;9.75;3.80;;;19.70;94.50;;;;;;6126381;23;19998;-79
2021/08/25 03:52:51;;;;;;;6.20;4.10;;;19.70;94.40;;;;;;6126385;23;20006;-79
2021/08/25 03:55:17;;;;;;;5.53;4.10;;;19.60;94.40;;;;;;6126724;23;20376;-80
2021/08/25 03:57:43;;;;;;;13.68;4.20;;;19.60;94.30;;;;;;6126230;23;20010;-83
2021/08/25 04:00:09;;;;;;;8.75;5.13;;;19.60;94.30;;;;;;6144293;23;20022;-82
2021/08/25 04:02:35;;;;;;;6.90;4.03;;;19.50;94.10;;;;;;6155927;23;20052;-80
2021/08/25 04:05:00;;;;;;;5.57;3.88;;;19.60;94.10;;;;;;6155664;23;19998;-81
2021/08/25 04:07:26;;;;;;;4.93;4.15;;;19.60;93.90;;;;;;6129869;23;20016;-83
2021/08/25 04:09:51;;;;;;;6.20;4.18;;;19.60;93.80;;;;;;6155695;23;20305;-83
2021/08/25 04:12:17;;;;;;;11.55;4.60;;;19.60;93.70;;;;;;6155657;23;20329;-86
2021/08/25 04:14:43;;;;;;;5.93;3.92;;;19.50;93.60;;;;;;6155633;23;20136;-81
2021/08/25 04:17:08;;;;;;;5.85;4.40;;;19.60;93.50;;;;;;6155682;23;20004;-83
2021/08/25 04:19:34;;;;;;;5.75;4.07;;;19.60;93.30;;;;;;6155828;23;20005;-82
2021/08/25 04:22:00;;;;;;;6.70;4.50;;;19.60;93.00;;;;;;6129628;23;20008;-82
2021/08/25 04:24:26;;;;;;;6.13;4.40;;;19.70;92.90;;;;;;6155661;23;20025;-87
2021/08/25 04:26:53;;;;;;;10.35;4.03;;;19.60;92.90;;;;;;6155581;23;20065;-81
2021/08/25 04:29:19;;;;;;;7.15;4.55;;;19.70;92.80;;;;;;6155654;23;20005;-82
2021/08/25 04:31:45;;;;;;;6.20;4.30;;;19.70;92.50;;;;;;6155759;23;20005;-86
2021/08/25 04:34:10;;;;;;;8.00;4.00;;;19.70;92.50;;;;;;6156007;23;20020;-84
2021/08/25 04:36:37;;;;;;;9.32;3.83;;;19.70;92.40;;;;;;6155507;23;20012;-87
2021/08/25 04:39:03;;;;;;;6.93;4.32;;;19.80;92.20;;;;;;6156419;23;20105;-81
2021/08/25 04:41:29;;;;;;;9.70;4.13;;;19.80;92.20;;;;;;6157408;23;20432;-80
2021/08/25 04:43:55;;;;;;;6.15;4.10;;;19.80;92.10;;;;;;6157789;23;20002;-80
2021/08/25 04:46:21;;;;;;;7.43;4.00;;;19.80;92.10;;;;;;6157405;23;20052;-84
2021/08/25 04:48:46;;;;;;;12.48;4.78;;;19.90;92.00;;;;;;6157568;23;19998;-80
2021/08/25 04:51:13;;;;;;;7.93;4.90;;;19.90;92.00;;;;;;6157456;23;20006;-86
2021/08/25 04:53:39;;;;;;;9.20;4.43;;;19.90;92.00;;;;;;6131009;23;20013;-83
2021/08/25 04:56:05;;;;;;;11.68;4.13;;;20.10;91.70;;;;;;6131209;23;20436;-81
2021/08/25 04:58:32;;;;;;;6.10;4.43;;;20.40;91.50;;;;;;6157284;23;20012;-82
2021/08/25 05:00:58;;;;;;;7.93;4.78;;;20.70;91.20;;;;;;6157097;23;20009;-88
2021/08/25 05:03:24;;;;;;;10.98;4.55;;;20.80;91.00;;;;;;6131031;23;20012;-86
2021/08/25 05:05:49;;;;;;;10.07;3.95;;;20.80;90.90;;;;;;6131200;23;20049;-81
2021/08/25 05:08:15;;;;;;;5.57;3.70;;;21.20;90.50;;;;;;6157512;23;20336;-84
2021/08/25 05:10:49;;;;;;;17.30;5.55;;;21.60;90.10;;;;;;6157106;23;20457;-81
2021/08/25 05:13:15;;;;;;;11.65;4.70;;;21.70;89.20;;;;;;6157514;23;20087;-81
2021/08/25 05:15:47;;;;;;;5.95;4.25;;;22.30;88.60;;;;;;6157955;23;19998;-80
2021/08/25 05:18:12;;;;;;;5.57;4.05;;;22.90;86.70;;;;;;6131055;23;20040;-83
2021/08/25 05:20:38;;;;;;;6.68;4.20;;;23.30;85.60;;;;;;6157523;23;19998;-87
2021/08/25 05:23:04;;;;;;;11.85;3.72;;;23.30;84.90;;;;;;6157074;23;20017;-82
2021/08/25 05:25:30;;;;;;;5.68;4.07;;;22.30;87.10;;;;;;6157283;23;20008;-80
2021/08/25 05:27:56;;;;;;;9.23;4.55;;;21.50;89.20;;;;;;6157455;23;20076;-80
2021/08/25 05:30:22;;;;;;;6.88;3.75;;;21.30;90.20;;;;;;6131162;23;20012;-83
2021/08/25 05:32:52;;;;;;;5.45;3.40;;;22.10;89.50;;;;;;6157821;23;20424;-82
2021/08/25 05:35:22;;;;;;;5.10;3.42;;;23.10;86.60;;;;;;6158461;23;20009;-88
2021/08/25 05:37:49;;;;;;;6.43;3.92;;;23.70;84.90;;;;;;6157724;23;20002;-83
2021/08/25 05:40:15;;;;;;;8.70;3.60;;;24.30;83.40;;;;;;6157835;23;20443;-81
2021/08/25 05:42:42;;;;;;;5.80;3.50;;;24.80;82.10;;;;;;6158235;23;19997;-86
2021/08/25 05:45:09;;;;;;;7.93;3.70;;;25.10;81.60;;;;;;6131521;23;20052;-83
2021/08/25 05:47:35;;;;;;;9.10;3.38;;;25.80;80.80;;;;;;6131764;23;20013;-80
2021/08/25 05:50:00;;;;;;;6.00;3.60;;;26.10;79.20;;;;;;6158394;23;19998;-82
2021/08/25 05:52:26;;;;;;;6.57;3.17;;;25.90;78.80;;;;;;6157368;23;20013;-80
2021/08/25 05:54:52;;;;;;;8.27;3.65;;;26.20;78.80;;;;;;6157454;23;20013;-88
2021/08/25 05:57:17;;;;;;;13.45;3.53;;;26.40;78.20;;;;;;6160215;23;20416;-83
2021/08/25 05:59:43;;;;;;;4.35;3.15;;;26.20;77.90;;;;;;6156874;23;20050;-81
2021/08/25 06:02:08;;;;;;;9.27;3.47;;;25.10;79.70;;;;;;6157091;23;20005;-81
2021/08/25 06:04:34;;;;;;;5.78;3.28;;;25.70;79.80;;;;;;6156619;23;20006;-80
2021/08/25 06:07:00;;;;;;;7.10;3.97;;;26.20;78.70;;;;;;6156970;23;20002;-83
2021/08/25 06:09:25;;;;;;;10.13;3.53;;;26.40;78.20;;;;;;6156810;23;20077;-82
2021/08/25 06:11:51;;;;;;;11.25;3.50;;;27.10;77.30;;;;;;6156921;23;20332;-88
2021/08/25 06:14:17;;;;;;;5.03;3.22;;;27.20;76.20;;;;;;6156726;23;20013;-80
2021/08/25 06:16:43;;;;;;;3.90;2.95;;;26.90;76.80;;;;;;6156779;23;20001;-88
2021/08/25 06:19:10;;;;;;;6.43;3.63;;;26.70;77.10;;;;;;6156834;23;20401;-86
2021/08/25 06:21:36;;;;;;;7.15;3.65;;;27.30;76.30;;;;;;6157071;23;20332;-80
2021/08/25 06:24:02;;;;;;;7.85;3.67;;;27.50;75.70;;;;;;6156849;23;20008;-84
2021/08/25 06:26:28;;;;;;;9.23;3.63;;;28.00;75.20;;;;;;6156700;23;20009;-81
2021/08/25 06:28:54;;;;;;;4.43;3.35;;;27.60;74.40;;;;;;6156596;23;20320;-82
2021/08/25 06:31:20;;;;;;;5.85;3.60;;;26.90;75.80;;;;;;6156793;23;20006;-80
2021/08/25 06:33:46;;;;;;;10.63;3.72;;;27.20;75.30;;;;;;6130312;23;20010;-81
2021/08/25 06:36:11;;;;;;;8.00;3.53;;;27.50;74.80;;;;;;6156795;23;20013;-88
2021/08/25 06:38:37;;;;;;;11.15;3.60;;;27.40;75.00;;;;;;6156987;23;20021;-79
2021/08/25 06:41:03;;;;;;;4.65;3.20;;;27.20;74.90;;;;;;6156610;23;20024;-80
2021/08/25 06:43:29;;;;;;;14.98;3.30;;;27.30;75.10;;;;;;6156872;23;20030;-83
2021/08/25 06:45:55;;;;;;;15.90;3.60;;;27.70;74.70;;;;;;6156442;23;20005;-80
2021/08/25 06:48:21;;;;;;;14.18;3.25;;;28.10;73.90;;;;;;6130343;23;20006;-84
2021/08/25 06:50:46;;;;;;;6.30;3.40;;;27.90;73.90;;;;;;6156620;23;20435;-79
2021/08/25 06:53:12;;;;;;;5.53;3.35;;;27.80;73.70;;;;;;6156738;23;20005;-88
2021/08/25 06:55:38;;;;;;;9.25;3.15;;;27.80;73.70;;;;;;6156518;23;20029;-84
2021/08/25 06:58:04;;;;;;;9.35;3.22;;;27.70;73.80;;;;;;6155062;23;20005;-83
2021/08/25 07:00:29;;;;;;;18.05;3.50;;;28.10;73.90;;;;;;6155989;23;20017;-89
2021/08/25 07:02:55;;;;;;;5.03;2.83;;;28.20;73.30;;;;;;6156338;23;20002;-85
2021/08/25 07:05:21;;;;;;;5.03;2.80;;;28.60;72.80;;;;;;6156572;23;20006;-83
2021/08/25 07:07:47;;;;;;;4.65;3.00;;;28.90;72.60;;;;;;6156320;23;20005;-88
2021/08/25 07:10:14;;;;;;;7.55;3.92;;;29.00;72.30;;;;;;6156228;23;20091;-78
2021/08/25 07:12:39;;;;;;;8.65;2.92;;;29.60;71.00;;;;;;6156279;23;20005;-81
2021/08/25 07:15:06;;;;;;;5.25;2.75;;;29.40;70.90;;;;;;6155806;23;20085;-79
2021/08/25 07:17:31;;;;;;;13.27;3.45;;;29.60;70.20;;;;;;6130151;23;20089;-85
2021/08/25 07:19:57;;;;;;;7.00;2.88;;;29.40;70.80;;;;;;6157178;23;20467;-80
2021/08/25 07:22:23;;;;;;;4.63;2.58;;;29.80;69.90;;;;;;6156128;23;20080;-85
2021/08/25 07:24:49;;;;;;;11.23;2.67;;;30.50;69.00;;;;;;6156137;23;20436;-79
2021/08/25 07:27:14;;;;;;;10.07;3.55;;;30.40;68.90;;;;;;6156213;23;20479;-81
2021/08/25 07:29:40;;;;;;;6.18;2.45;;;30.70;68.80;;;;;;6155957;23;20011;-80
2021/08/25 07:32:06;;;;;;;6.00;3.03;;;30.80;68.20;;;;;;6155913;23;20002;-81
2021/08/25 07:34:32;;;;;;;8.55;2.45;;;30.80;68.40;;;;;;6156430;23;20009;-81
2021/08/25 07:36:58;;;;;;;3.83;2.50;;;30.80;68.20;;;;;;6156208;23;20009;-87
2021/08/25 07:39:23;;;;;;;12.88;3.65;;;31.20;67.40;;;;;;6155849;23;20009;-87
2021/08/25 07:41:49;;;;;;;8.82;2.63;;;31.30;67.10;;;;;;6155723;23;20008;-80
2021/08/25 07:44:15;;;;;;;4.38;2.90;;;31.20;67.00;;;;;;6156352;23;20006;-85
2021/08/25 07:46:40;;;;;;;4.63;2.72;;;31.30;67.10;;;;;;6156020;23;20002;-88
2021/08/25 07:49:06;;;;;;;9.35;2.65;;;31.60;67.00;;;;;;6156084;23;20377;-88
2021/08/25 07:51:34;;;;;;;21.58;2.70;;;31.50;65.70;;;;;;6155906;23;20025;-80
2021/08/25 07:54:01;;;;;;;6.72;2.92;;;30.90;66.10;;;;;;6129616;23;20040;-84
2021/08/25 07:56:27;;;;;;;4.03;2.40;;;30.90;67.10;;;;;;6156122;23;19998;-86
2021/08/25 07:58:52;;;;;;;9.02;3.10;;;31.50;66.30;;;;;;6129603;23;20009;-90
2021/08/25 08:01:18;;;;;;;8.35;3.05;;;31.40;66.10;;;;;;6155982;23;20064;-84
2021/08/25 08:03:44;;;;;;;11.27;3.17;;;31.50;65.90;;;;;;6155989;23;20012;-83
2021/08/25 08:06:09;;;;;;;7.00;2.63;;;31.90;65.70;;;;;;6155839;23;19998;-81
2021/08/25 08:08:36;;;;;;;8.02;2.58;;;31.90;64.70;;;;;;6155916;23;20069;-90
2021/08/25 08:11:01;;;;;;;3.33;2.38;;;31.70;64.70;;;;;;6155035;23;20332;-91
2021/08/25 08:13:27;;;;;;;10.82;2.90;;;31.50;65.30;;;;;;6156538;23;20060;-83
2021/08/25 08:15:53;;;;;;;4.47;2.88;;;31.30;64.40;;;;;;6157112;23;20313;-86
2021/08/25 08:18:30;;;;;;;9.45;3.20;;;31.30;64.80;;;;;;6157392;23;20005;-83
2021/08/25 08:20:56;;;;;;;4.50;2.63;;;31.60;65.30;;;;;;6157707;23;20052;-84
2021/08/25 08:23:21;;;;;;;10.35;3.00;;;31.70;64.50;;;;;;6132007;23;20005;-90
2021/08/25 08:25:47;;;;;;;5.95;2.58;;;31.90;63.90;;;;;;6157915;23;20025;-87
2021/08/25 08:28:13;;;;;;;6.47;2.60;;;31.70;64.50;;;;;;6156707;23;20008;-83
2021/08/25 08:30:39;;;;;;;5.63;2.70;;;31.80;64.70;;;;;;6158299;23;19997;-86
2021/08/25 08:33:04;;;;;;;3.70;2.75;;;31.60;64.10;;;;;;6158663;23;20448;-89
2021/08/25 08:35:33;;;;;;;14.45;2.80;;;31.00;64.00;;;;;;6160952;23;20005;-88
2021/08/25 08:38:01;;;;;;;5.03;2.88;;;30.30;65.00;;;;;;6156079;23;20375;-82
2021/08/25 08:40:27;;;;;;;9.32;3.30;;;30.30;65.50;;;;;;6157238;23;20056;-80
2021/08/25 08:42:53;;;;;;;6.72;3.20;;;30.10;64.70;;;;;;6156831;23;20006;-80
2021/08/25 08:45:20;;;;;;;4.78;2.92;;;29.70;65.60;;;;;;6157443;23;20006;-81
2021/08/25 08:47:46;;;;;;;6.80;2.95;;;30.00;65.70;;;;;;6131358;23;20006;-82
2021/08/25 08:50:12;;;;;;;5.97;2.85;;;30.20;65.10;;;;;;6130476;23;20009;-81
2021/08/25 08:52:38;;;;;;;5.90;2.75;;;29.70;65.60;;;;;;6130275;23;20009;-81
2021/08/25 08:55:05;;;;;;;4.28;2.92;;;29.20;66.50;;;;;;6130027;23;20076;-81
2021/08/25 08:57:31;;;;;;;8.63;3.40;;;29.00;67.10;;;;;;6156523;23;20029;-81
2021/08/25 09:00:00;;;;;;;15.07;3.80;;;28.90;68.20;;;;;;6156317;23;20092;-81
2021/08/25 09:02:40;;;;;;;5.25;3.40;;;28.60;67.30;;;;;;6156514;23;20004;-80
2021/08/25 09:05:26;;;;;;;6.20;3.45;;;28.50;68.40;;;;;;6156369;23;20068;-81
2021/08/25 09:07:54;;;;;;;6.20;3.55;;;28.40;68.50;;;;;;6129808;23;20420;-81
2021/08/25 09:10:22;;;;;;;6.68;3.45;;;28.10;68.80;;;;;;6130000;23;20036;-81
2021/08/25 09:12:50;;;;;;;5.65;3.45;;;27.80;69.50;;;;;;6155289;23;20491;-81
2021/08/25 09:15:25;;;;;;;14.48;3.60;;;27.50;69.90;;;;;;6130008;23;20041;-81
2021/08/25 09:18:03;;;;;;;10.77;3.33;;;27.20;70.50;;;;;;6130437;23;20463;-80
2021/08/25 09:20:31;;;;;;;10.05;3.97;;;27.10;70.20;;;;;;6156220;23;20036;-79
2021/08/25 09:23:07;;;;;;;9.02;3.42;;;27.10;69.90;;;;;;6156519;23;20006;-82
2021/08/25 09:25:34;;;;;;;4.60;2.92;;;27.00;70.20;;;;;;6156083;23;20002;-80
2021/08/25 09:28:00;;;;;;;8.52;3.10;;;26.90;70.40;;;;;;6157099;23;20084;-80
2021/08/25 09:30:26;;;;;;;11.43;3.33;;;26.80;70.10;;;;;;6157096;23;20001;-79
2021/08/25 09:32:51;;;;;;;12.35;4.07;;;26.80;70.60;;;;;;6156718;23;20012;-80
2021/08/25 09:35:17;;;;;;;4.95;2.97;;;26.80;70.90;;;;;;6156655;23;20013;-81
2021/08/25 09:37:56;;;;;;;7.57;3.65;;;26.90;70.40;;;;;;6156933;23;20005;-81
2021/08/25 09:40:21;;;;;;;6.63;4.00;;;26.90;70.00;;;;;;6156887;23;20379;-80
2021/08/25 09:42:47;;;;;;;6.32;3.35;;;26.60;70.00;;;;;;6157000;23;19997;-79
2021/08/25 09:45:15;;;;;;;13.10;3.72;;;26.50;70.80;;;;;;6156916;23;20052;-79
2021/08/25 09:47:45;;;;;;;5.60;3.38;;;26.40;71.40;;;;;;6156821;23;20002;-81
2021/08/25 09:50:12;;;;;;;6.28;3.88;;;26.30;70.80;;;;;;6157088;23;20005;-80
2021/08/25 09:52:37;;;;;;;15.88;3.92;;;26.10;70.80;;;;;;6130745;23;20005;-80
2021/08/25 09:55:03;;;;;;;22.52;4.40;;;26.00;71.50;;;;;;6156582;23;20108;-79
2021/08/25 09:57:40;;;;;;;8.75;3.63;;;25.90;72.10;;;;;;6156262;23;19997;-80
2021/08/25 10:00:09;;;;;;;6.07;3.78;;;26.10;72.10;;;;;;6155666;23;20045;-81
2021/08/25 10:02:35;;;;;;;15.38;3.97;;;26.00;72.50;;;;;;6156507;23;19998;-81
2021/08/25 10:05:01;;;;;;;9.30;3.42;;;26.20;71.70;;;;;;6156613;23;20024;-82
2021/08/25 10:07:27;;;;;;;5.72;3.38;;;26.20;71.60;;;;;;6155924;23;20032;-81
2021/08/25 10:09:54;;;;;;;9.25;3.15;;;26.20;71.80;;;;;;6156295;23;20089;-82
2021/08/25 10:12:20;;;;;;;7.68;3.90;;;26.10;71.90;;;;;;6156355;23;20002;-82
2021/08/25 10:14:46;;;;;;;6.00;3.25;;;26.00;71.50;;;;;;6156218;23;20005;-81
2021/08/25 10:17:41;;;;;;;6.45;3.42;;;26.10;71.40;;;;;;6156132;23;20012;-81
2021/08/25 10:20:33;;;;;;;7.82;3.97;;;26.10;72.50;;;;;;6156466;23;20005;-80
2021/08/25 10:22:59;;;;;;;4.55;3.25;;;26.10;72.70;;;;;;6156720;23;20095;-83
2021/08/25 10:25:26;;;;;;;6.90;3.83;;;26.30;71.90;;;;;;6130207;23;20002;-81
2021/08/25 10:28:05;;;;;;;12.30;4.25;;;26.30;71.60;;;;;;6156717;23;19997;-80
2021/08/25 10:30:55;;;;;;;7.15;3.40;;;26.30;71.60;;;;;;6156736;23;20375;-81
2021/08/25 10:33:21;;;;;;;6.07;3.90;;;26.20;70.80;;;;;;6130279;23;20005;-80
2021/08/25 10:35:47;;;;;;;5.53;3.22;;;26.10;71.00;;;;;;6156474;23;20064;-81
2021/08/25 10:38:23;;;;;;;9.55;3.72;;;26.10;71.40;;;;;;6156569;23;20048;-79
2021/08/25 10:40:52;;;;;;;5.95;3.47;;;25.90;72.40;;;;;;6156424;23;20063;-80
2021/08/25 10:43:40;;;;;;;8.93;3.63;;;25.80;73.00;;;;;;6156868;23;20008;-80
2021/08/25 10:46:08;;;;;;;9.75;3.28;;;25.70;73.00;;;;;;6156423;23;20001;-80
2021/08/25 10:48:40;;;;;;;6.18;3.70;;;25.60;72.10;;;;;;6156456;23;19998;-79
2021/08/25 10:51:22;;;;;;;6.82;4.40;;;25.60;73.10;;;;;;6156403;23;20021;-81
2021/08/25 10:53:47;;;;;;;8.10;3.47;;;25.60;73.70;;;;;;6156563;23;20005;-80
2021/08/25 10:56:26;;;;;;;6.35;3.60;;;25.70;73.80;;;;;;6154250;23;20036;-80
2021/08/25 10:58:55;;;;;;;7.47;4.05;;;25.90;72.30;;;;;;6129598;23;20009;-80
2021/08/25 11:01:37;;;;;;;10.05;3.70;;;26.00;72.80;;;;;;6130355;23;20016;-80
2021/08/25 11:04:18;;;;;;;9.25;3.80;;;26.10;73.00;;;;;;6156361;23;20009;-81
2021/08/25 11:06:45;;;;;;;8.43;3.95;;;26.20;73.20;;;;;;6156008;23;20389;-80
2021/08/25 11:09:30;;;;;;;8.55;4.15;;;26.30;72.70;;;;;;6156198;23;20016;-81
2021/08/25 11:11:58;;;;;;;12.25;3.92;;;26.20;72.00;;;;;;6158755;23;20056;-80
2021/08/25 11:14:46;;;;;;;12.43;3.95;;;26.10;72.60;;;;;;6155907;23;20016;-82
2021/08/25 11:17:13;;;;;;;8.73;3.55;;;26.20;72.60;;;;;;6130167;23;20009;-82
2021/08/25 11:19:40;;;;;;;6.90;4.10;;;26.20;73.10;;;;;;6155871;23;20006;-83
2021/08/25 11:22:08;;;;;;;9.60;3.75;;;26.30;72.50;;;;;;6130070;23;20056;-82
2021/08/25 11:24:37;;;;;;;5.75;3.30;;;26.20;72.20;;;;;;6130522;23;20035;-81
2021/08/25 11:27:03;;;;;;;7.00;3.80;;;26.20;72.50;;;;;;6156111;23;20008;-80
2021/08/25 11:29:29;;;;;;;5.70;3.50;;;26.30;72.70;;;;;;6156053;23;20009;-81
2021/08/25 11:31:55;;;;;;;8.45;4.18;;;26.30;71.70;;;;;;6155955;23;20479;-81
2021/08/25 11:34:22;;;;;;;9.75;3.83;;;26.20;72.40;;;;;;6155906;23;20041;-81
2021/08/25 11:36:57;;;;;;;8.50;3.58;;;26.20;73.10;;;;;;6155788;23;20001;-80
2021/08/25 11:39:23;;;;;;;6.05;3.70;;;26.20;72.70;;;;;;6155916;23;20436;-82
2021/08/25 11:41:50;;;;;;;9.90;4.32;;;26.20;72.20;;;;;;6155749;23;20073;-80
2021/08/25 11:44:37;;;;;;;5.43;3.67;;;26.20;71.90;;;;;;6155552;23;20006;-82
2021/08/25 11:47:11;;;;;;;5.82;3.92;;;26.10;71.40;;;;;;6156005;23;20001;-82
2021/08/25 11:49:38;;;;;;;7.35;4.72;;;26.00;71.50;;;;;;6155139;23;20444;-83
2021/08/25 11:52:04;;;;;;;8.13;4.55;;;26.00;71.70;;;;;;6155082;23;20063;-81
2021/08/25 11:54:30;;;;;;;6.25;4.20;;;26.00;71.30;;;;;;6155402;23;20444;-81
2021/08/25 11:56:55;;;;;;;10.88;4.25;;;26.00;70.50;;;;;;6154945;23;20068;-80
2021/08/25 11:59:21;;;;;;;5.30;3.83;;;26.00;70.80;;;;;;6123616;23;20088;-81
2021/08/25 12:01:47;;;;;;;7.50;4.80;;;26.00;71.20;;;;;;6126385;23;20096;-80
2021/08/25 12:04:28;;;;;;;8.40;4.32;;;26.00;70.60;;;;;;6125371;23;20006;-82
2021/08/25 12:06:55;;;;;;;;;;;26.00;69.80;;;;;;6125758;23;20014;-82
2021/08/25 12:09:37;;;;;;;7.85;3.72;;;26.00;69.90;;;;;;6125248;23;19901;-81
2021/08/25 12:12:03;;;;;;;13.80;4.50;;;26.10;70.00;;;;;;6125534;23;20296;-83
2021/08/25 12:14:56;;;;;;;11.48;4.28;;;26.10;70.30;;;;;;6125168;23;20010;-83
2021/08/25 12:17:23;;;;;;;8.68;4.20;;;26.10;71.20;;;;;;6125431;23;20373;-83
2021/08/25 12:19:56;;;;;;;9.90;4.97;;;26.10;71.10;;;;;;6125446;23;20017;-82
2021/08/25 12:22:25;;;;;;;7.30;3.90;;;26.10;71.10;;;;;;6125005;23;20006;-82
2021/08/25 12:24:52;;;;;;;18.15;4.72;;;26.10;71.10;;;;;;6125217;23;20012;-84
2021/08/25 12:27:17;;;;;;;18.08;4.93;;;26.00;70.50;;;;;;6125486;23;19998;-83
2021/08/25 12:29:44;;;;;;;9.30;4.75;;;25.90;71.20;;;;;;6125082;23;20093;-83
2021/08/25 12:32:11;;;;;;;5.70;3.78;;;25.90;71.40;;;;;;6125260;23;20029;-82
2021/08/25 12:35:05;;;;;;;11.48;4.75;;;26.00;71.70;;;;;;6125002;23;20010;-82
2021/08/25 12:37:51;;;;;;;11.30;5.32;;;26.00;72.00;;;;;;6148417;23;20056;-82
2021/08/25 12:40:19;;;;;;;15.23;5.22;;;26.00;71.50;;;;;;6125120;23;20060;-83
2021/08/25 12:42:46;;;;;;;19.77;5.60;;;25.80;71.90;;;;;;6124871;23;20074;-82
2021/08/25 12:45:12;;;;;;;8.40;4.70;;;25.80;71.70;;;;;;6125232;23;20423;-82
2021/08/25 12:47:37;;;;;;;11.98;4.78;;;25.80;72.10;;;;;;6124486;23;20002;-82
2021/08/25 12:50:04;;;;;;;7.68;4.25;;;25.80;70.80;;;;;;6125162;23;20006;-83